sensor_id;sensor_type;location;lat;lon;timestamp;P1;durP1;ratioP1;P2;durP2;ratioP2
42714;SDS011;28351;51.480;5.706;2023-06-22T00:01:57;5.50;;;4.05;;
42714;SDS011;28351;51.480;5.706;2023-06-22T00:04:23;8.35;;;4.80;;
42714;SDS011;28351;51.480;5.706;2023-06-22T00:06:49;6.90;;;4.53;;
42714;SDS011;28351;51.480;5.706;2023-06-22T00:09:14;6.18;;;4.28;;
42714;SDS011;28351;51.480;5.706;2023-06-22T00:11:40;6.15;;;4.05;;
42714;SDS011;28351;51.480;5.706;2023-06-22T00:14:08;7.30;;;3.65;;
42714;SDS011;28351;51.480;5.706;2023-06-22T00:16:34;5.35;;;3.97;;
42714;SDS011;28351;51.480;5.706;2023-06-22T00:19:00;7.40;;;5.00;;
42714;SDS011;28351;51.480;5.706;2023-06-22T00:21:27;7.00;;;4.38;;
42714;SDS011;28351;51.480;5.706;2023-06-22T00:23:52;6.15;;;4.35;;
42714;SDS011;28351;51.480;5.706;2023-06-22T00:26:18;9.07;;;4.80;;
42714;SDS011;28351;51.480;5.706;2023-06-22T00:28:44;6.68;;;4.57;;
42714;SDS011;28351;51.480;5.706;2023-06-22T00:31:10;8.27;;;4.25;;
42714;SDS011;28351;51.480;5.706;2023-06-22T00:33:35;7.57;;;4.43;;
42714;SDS011;28351;51.480;5.706;2023-06-22T00:36:01;6.15;;;4.32;;
42714;SDS011;28351;51.480;5.706;2023-06-22T00:38:30;7.72;;;4.45;;
42714;SDS011;28351;51.480;5.706;2023-06-22T00:40:56;6.13;;;4.40;;
42714;SDS011;28351;51.480;5.706;2023-06-22T00:43:21;6.65;;;4.22;;
42714;SDS011;28351;51.480;5.706;2023-06-22T00:45:47;6.13;;;4.20;;
42714;SDS011;28351;51.480;5.706;2023-06-22T00:48:13;5.95;;;4.28;;
42714;SDS011;28351;51.480;5.706;2023-06-22T00:50:40;7.13;;;4.53;;
42714;SDS011;28351;51.480;5.706;2023-06-22T00:53:06;7.03;;;5.60;;
42714;SDS011;28351;51.480;5.706;2023-06-22T00:55:33;9.23;;;5.55;;
42714;SDS011;28351;51.480;5.706;2023-06-22T00:58:03;7.85;;;5.70;;
42714;SDS011;28351;51.480;5.706;2023-06-22T01:00:35;8.90;;;5.32;;
42714;SDS011;28351;51.480;5.706;2023-06-22T01:03:01;9.10;;;6.15;;
42714;SDS011;28351;51.480;5.706;2023-06-22T01:05:27;6.90;;;5.18;;
42714;SDS011;28351;51.480;5.706;2023-06-22T01:17:00;7.32;;;4.70;;
42714;SDS011;28351;51.480;5.706;2023-06-22T01:22:08;9.50;;;5.18;;
42714;SDS011;28351;51.480;5.706;2023-06-22T01:27:28;10.48;;;6.60;;
42714;SDS011;28351;51.480;5.706;2023-06-22T01:30:01;8.90;;;5.53;;
42714;SDS011;28351;51.480;5.706;2023-06-22T01:32:30;9.68;;;6.68;;
42714;SDS011;28351;51.480;5.706;2023-06-22T01:34:58;13.23;;;7.47;;
42714;SDS011;28351;51.480;5.706;2023-06-22T01:37:26;9.05;;;6.60;;
42714;SDS011;28351;51.480;5.706;2023-06-22T01:39:53;9.23;;;6.20;;
42714;SDS011;28351;51.480;5.706;2023-06-22T01:42:21;9.23;;;6.57;;
42714;SDS011;28351;51.480;5.706;2023-06-22T01:44:48;13.98;;;7.18;;
42714;SDS011;28351;51.480;5.706;2023-06-22T01:47:17;10.15;;;6.43;;
42714;SDS011;28351;51.480;5.706;2023-06-22T01:49:43;9.68;;;6.55;;
42714;SDS011;28351;51.480;5.706;2023-06-22T01:52:09;10.82;;;7.50;;
42714;SDS011;28351;51.480;5.706;2023-06-22T01:54:36;12.77;;;7.50;;
42714;SDS011;28351;51.480;5.706;2023-06-22T01:57:02;7.72;;;6.05;;
42714;SDS011;28351;51.480;5.706;2023-06-22T01:59:31;10.13;;;6.45;;
42714;SDS011;28351;51.480;5.706;2023-06-22T02:02:07;9.02;;;6.18;;
42714;SDS011;28351;51.480;5.706;2023-06-22T02:04:44;9.13;;;6.50;;
42714;SDS011;28351;51.480;5.706;2023-06-22T02:07:17;11.55;;;7.25;;
42714;SDS011;28351;51.480;5.706;2023-06-22T02:09:44;10.80;;;6.75;;
42714;SDS011;28351;51.480;5.706;2023-06-22T02:12:12;8.90;;;6.22;;
42714;SDS011;28351;51.480;5.706;2023-06-22T02:14:42;9.27;;;6.80;;
42714;SDS011;28351;51.480;5.706;2023-06-22T02:17:08;9.55;;;7.00;;
42714;SDS011;28351;51.480;5.706;2023-06-22T02:19:37;11.13;;;7.22;;
42714;SDS011;28351;51.480;5.706;2023-06-22T02:22:04;11.55;;;6.97;;
42714;SDS011;28351;51.480;5.706;2023-06-22T02:24:32;11.52;;;7.43;;
42714;SDS011;28351;51.480;5.706;2023-06-22T02:26:58;11.82;;;7.95;;
42714;SDS011;28351;51.480;5.706;2023-06-22T02:29:25;13.30;;;7.80;;
42714;SDS011;28351;51.480;5.706;2023-06-22T02:31:52;12.90;;;7.85;;
42714;SDS011;28351;51.480;5.706;2023-06-22T02:34:18;13.38;;;8.45;;
42714;SDS011;28351;51.480;5.706;2023-06-22T02:36:45;11.00;;;8.68;;
42714;SDS011;28351;51.480;5.706;2023-06-22T02:39:19;11.60;;;8.30;;
42714;SDS011;28351;51.480;5.706;2023-06-22T02:41:45;13.50;;;8.75;;
42714;SDS011;28351;51.480;5.706;2023-06-22T02:44:11;12.63;;;8.15;;
42714;SDS011;28351;51.480;5.706;2023-06-22T02:46:46;13.50;;;8.88;;
42714;SDS011;28351;51.480;5.706;2023-06-22T02:49:13;12.98;;;8.50;;
42714;SDS011;28351;51.480;5.706;2023-06-22T02:51:39;12.77;;;8.68;;
42714;SDS011;28351;51.480;5.706;2023-06-22T02:54:07;14.85;;;8.93;;
42714;SDS011;28351;51.480;5.706;2023-06-22T02:56:32;13.13;;;8.73;;
42714;SDS011;28351;51.480;5.706;2023-06-22T02:59:16;13.95;;;9.45;;
42714;SDS011;28351;51.480;5.706;2023-06-22T03:01:42;13.50;;;9.10;;
42714;SDS011;28351;51.480;5.706;2023-06-22T03:04:22;15.05;;;9.25;;
42714;SDS011;28351;51.480;5.706;2023-06-22T03:06:48;10.45;;;7.63;;
42714;SDS011;28351;51.480;5.706;2023-06-22T03:09:16;14.05;;;9.07;;
42714;SDS011;28351;51.480;5.706;2023-06-22T03:11:42;11.15;;;8.63;;
42714;SDS011;28351;51.480;5.706;2023-06-22T03:14:08;14.00;;;8.50;;
42714;SDS011;28351;51.480;5.706;2023-06-22T03:16:33;13.43;;;8.65;;
42714;SDS011;28351;51.480;5.706;2023-06-22T03:18:59;17.00;;;9.82;;
42714;SDS011;28351;51.480;5.706;2023-06-22T03:21:26;14.10;;;9.15;;
42714;SDS011;28351;51.480;5.706;2023-06-22T03:26:22;12.73;;;9.10;;
42714;SDS011;28351;51.480;5.706;2023-06-22T03:28:52;12.65;;;8.75;;
42714;SDS011;28351;51.480;5.706;2023-06-22T03:31:17;13.77;;;9.43;;
42714;SDS011;28351;51.480;5.706;2023-06-22T03:33:46;13.30;;;9.63;;
42714;SDS011;28351;51.480;5.706;2023-06-22T03:36:17;11.27;;;8.88;;
42714;SDS011;28351;51.480;5.706;2023-06-22T03:38:47;14.02;;;8.73;;
42714;SDS011;28351;51.480;5.706;2023-06-22T03:41:14;11.93;;;8.88;;
42714;SDS011;28351;51.480;5.706;2023-06-22T03:43:40;15.10;;;9.15;;
42714;SDS011;28351;51.480;5.706;2023-06-22T03:46:11;12.20;;;8.30;;
42714;SDS011;28351;51.480;5.706;2023-06-22T03:48:37;14.68;;;10.07;;
42714;SDS011;28351;51.480;5.706;2023-06-22T03:51:03;13.25;;;9.52;;
42714;SDS011;28351;51.480;5.706;2023-06-22T03:53:29;15.38;;;9.13;;
42714;SDS011;28351;51.480;5.706;2023-06-22T03:55:55;14.27;;;9.48;;
42714;SDS011;28351;51.480;5.706;2023-06-22T03:58:21;13.57;;;9.40;;
42714;SDS011;28351;51.480;5.706;2023-06-22T04:00:50;13.35;;;9.35;;
42714;SDS011;28351;51.480;5.706;2023-06-22T04:03:17;14.50;;;9.40;;
42714;SDS011;28351;51.480;5.706;2023-06-22T04:05:44;14.07;;;9.93;;
42714;SDS011;28351;51.480;5.706;2023-06-22T04:08:10;13.70;;;9.13;;
42714;SDS011;28351;51.480;5.706;2023-06-22T04:10:36;13.40;;;9.38;;
42714;SDS011;28351;51.480;5.706;2023-06-22T04:13:08;13.07;;;9.43;;
42714;SDS011;28351;51.480;5.706;2023-06-22T04:15:34;12.82;;;9.38;;
42714;SDS011;28351;51.480;5.706;2023-06-22T04:18:00;12.32;;;8.32;;
42714;SDS011;28351;51.480;5.706;2023-06-22T04:20:25;14.40;;;9.20;;
42714;SDS011;28351;51.480;5.706;2023-06-22T04:22:52;14.57;;;9.30;;
42714;SDS011;28351;51.480;5.706;2023-06-22T04:25:18;14.02;;;9.40;;
42714;SDS011;28351;51.480;5.706;2023-06-22T04:27:45;15.65;;;9.25;;
42714;SDS011;28351;51.480;5.706;2023-06-22T04:30:11;14.55;;;9.43;;
42714;SDS011;28351;51.480;5.706;2023-06-22T04:32:37;14.85;;;9.32;;
42714;SDS011;28351;51.480;5.706;2023-06-22T04:35:03;14.52;;;9.43;;
42714;SDS011;28351;51.480;5.706;2023-06-22T04:37:32;14.80;;;9.80;;
42714;SDS011;28351;51.480;5.706;2023-06-22T04:39:58;13.38;;;9.00;;
42714;SDS011;28351;51.480;5.706;2023-06-22T04:42:25;14.77;;;8.95;;
42714;SDS011;28351;51.480;5.706;2023-06-22T04:44:51;18.38;;;10.32;;
42714;SDS011;28351;51.480;5.706;2023-06-22T04:47:17;15.98;;;10.30;;
42714;SDS011;28351;51.480;5.706;2023-06-22T04:49:43;14.32;;;10.50;;
42714;SDS011;28351;51.480;5.706;2023-06-22T04:52:10;16.02;;;10.40;;
42714;SDS011;28351;51.480;5.706;2023-06-22T04:54:38;14.27;;;10.32;;
42714;SDS011;28351;51.480;5.706;2023-06-22T04:57:06;18.73;;;11.45;;
42714;SDS011;28351;51.480;5.706;2023-06-22T04:59:35;15.00;;;10.63;;
42714;SDS011;28351;51.480;5.706;2023-06-22T05:02:15;14.07;;;10.20;;
42714;SDS011;28351;51.480;5.706;2023-06-22T05:04:40;17.33;;;11.52;;
42714;SDS011;28351;51.480;5.706;2023-06-22T05:07:06;16.17;;;10.85;;
42714;SDS011;28351;51.480;5.706;2023-06-22T05:09:34;18.80;;;12.95;;
42714;SDS011;28351;51.480;5.706;2023-06-22T05:11:59;17.50;;;11.27;;
42714;SDS011;28351;51.480;5.706;2023-06-22T05:14:28;16.90;;;11.20;;
42714;SDS011;28351;51.480;5.706;2023-06-22T05:16:54;20.08;;;11.77;;
42714;SDS011;28351;51.480;5.706;2023-06-22T05:19:27;17.60;;;11.80;;
42714;SDS011;28351;51.480;5.706;2023-06-22T05:21:58;18.48;;;11.82;;
42714;SDS011;28351;51.480;5.706;2023-06-22T05:24:23;22.13;;;12.63;;
42714;SDS011;28351;51.480;5.706;2023-06-22T05:26:49;14.93;;;11.77;;
42714;SDS011;28351;51.480;5.706;2023-06-22T05:29:15;15.77;;;11.50;;
42714;SDS011;28351;51.480;5.706;2023-06-22T05:31:40;17.15;;;12.25;;
42714;SDS011;28351;51.480;5.706;2023-06-22T05:34:06;17.55;;;12.32;;
42714;SDS011;28351;51.480;5.706;2023-06-22T05:39:00;17.70;;;12.00;;
42714;SDS011;28351;51.480;5.706;2023-06-22T05:41:40;17.85;;;12.77;;
42714;SDS011;28351;51.480;5.706;2023-06-22T05:44:06;18.38;;;13.43;;
42714;SDS011;28351;51.480;5.706;2023-06-22T05:46:31;19.92;;;13.23;;
42714;SDS011;28351;51.480;5.706;2023-06-22T05:48:57;19.85;;;13.23;;
42714;SDS011;28351;51.480;5.706;2023-06-22T05:51:23;18.77;;;12.98;;
42714;SDS011;28351;51.480;5.706;2023-06-22T05:53:48;18.70;;;13.57;;
42714;SDS011;28351;51.480;5.706;2023-06-22T05:56:18;19.00;;;13.25;;
42714;SDS011;28351;51.480;5.706;2023-06-22T05:58:44;17.40;;;12.90;;
42714;SDS011;28351;51.480;5.706;2023-06-22T06:01:10;16.23;;;12.88;;
42714;SDS011;28351;51.480;5.706;2023-06-22T06:03:36;18.73;;;13.75;;
42714;SDS011;28351;51.480;5.706;2023-06-22T06:06:07;18.77;;;13.07;;
42714;SDS011;28351;51.480;5.706;2023-06-22T06:08:34;18.95;;;12.95;;
42714;SDS011;28351;51.480;5.706;2023-06-22T06:10:59;19.75;;;12.73;;
42714;SDS011;28351;51.480;5.706;2023-06-22T06:13:25;20.02;;;13.07;;
42714;SDS011;28351;51.480;5.706;2023-06-22T06:15:50;19.20;;;12.25;;
42714;SDS011;28351;51.480;5.706;2023-06-22T06:18:16;19.55;;;13.23;;
42714;SDS011;28351;51.480;5.706;2023-06-22T06:20:42;19.63;;;13.68;;
42714;SDS011;28351;51.480;5.706;2023-06-22T06:23:20;19.35;;;14.25;;
42714;SDS011;28351;51.480;5.706;2023-06-22T06:25:45;18.75;;;13.57;;
42714;SDS011;28351;51.480;5.706;2023-06-22T06:28:11;17.27;;;12.80;;
42714;SDS011;28351;51.480;5.706;2023-06-22T06:30:37;17.50;;;12.95;;
42714;SDS011;28351;51.480;5.706;2023-06-22T06:33:03;19.00;;;13.77;;
42714;SDS011;28351;51.480;5.706;2023-06-22T06:35:33;20.13;;;13.65;;
42714;SDS011;28351;51.480;5.706;2023-06-22T06:37:59;21.25;;;13.90;;
42714;SDS011;28351;51.480;5.706;2023-06-22T06:40:25;18.60;;;13.32;;
42714;SDS011;28351;51.480;5.706;2023-06-22T06:42:50;17.63;;;13.05;;
42714;SDS011;28351;51.480;5.706;2023-06-22T06:47:43;18.70;;;12.68;;
42714;SDS011;28351;51.480;5.706;2023-06-22T06:50:12;19.00;;;12.95;;
42714;SDS011;28351;51.480;5.706;2023-06-22T06:52:38;20.05;;;13.32;;
42714;SDS011;28351;51.480;5.706;2023-06-22T06:55:04;21.13;;;13.38;;
42714;SDS011;28351;51.480;5.706;2023-06-22T06:57:34;20.75;;;13.75;;
42714;SDS011;28351;51.480;5.706;2023-06-22T07:02:34;20.13;;;13.27;;
42714;SDS011;28351;51.480;5.706;2023-06-22T07:05:00;23.50;;;14.18;;
42714;SDS011;28351;51.480;5.706;2023-06-22T07:07:28;20.13;;;14.48;;
42714;SDS011;28351;51.480;5.706;2023-06-22T07:09:54;21.77;;;13.60;;
42714;SDS011;28351;51.480;5.706;2023-06-22T07:12:19;20.40;;;13.32;;
42714;SDS011;28351;51.480;5.706;2023-06-22T07:14:46;20.38;;;13.38;;
42714;SDS011;28351;51.480;5.706;2023-06-22T07:17:11;20.75;;;13.18;;
42714;SDS011;28351;51.480;5.706;2023-06-22T07:19:37;16.90;;;13.10;;
42714;SDS011;28351;51.480;5.706;2023-06-22T07:22:03;19.02;;;14.20;;
42714;SDS011;28351;51.480;5.706;2023-06-22T07:24:29;20.45;;;14.35;;
42714;SDS011;28351;51.480;5.706;2023-06-22T07:26:55;20.42;;;14.30;;
42714;SDS011;28351;51.480;5.706;2023-06-22T07:29:24;16.65;;;12.80;;
42714;SDS011;28351;51.480;5.706;2023-06-22T07:31:50;18.48;;;13.50;;
42714;SDS011;28351;51.480;5.706;2023-06-22T07:34:21;17.77;;;13.65;;
42714;SDS011;28351;51.480;5.706;2023-06-22T07:36:47;18.83;;;13.60;;
42714;SDS011;28351;51.480;5.706;2023-06-22T07:39:13;20.60;;;14.27;;
42714;SDS011;28351;51.480;5.706;2023-06-22T07:41:42;22.48;;;13.52;;
42714;SDS011;28351;51.480;5.706;2023-06-22T07:44:07;20.20;;;13.60;;
42714;SDS011;28351;51.480;5.706;2023-06-22T07:46:33;17.63;;;13.40;;
42714;SDS011;28351;51.480;5.706;2023-06-22T07:48:59;16.42;;;13.15;;
42714;SDS011;28351;51.480;5.706;2023-06-22T07:51:26;17.13;;;12.95;;
42714;SDS011;28351;51.480;5.706;2023-06-22T07:53:51;18.33;;;12.98;;
42714;SDS011;28351;51.480;5.706;2023-06-22T07:56:17;18.17;;;13.77;;
42714;SDS011;28351;51.480;5.706;2023-06-22T07:58:45;17.77;;;12.53;;
42714;SDS011;28351;51.480;5.706;2023-06-22T08:01:11;17.50;;;13.05;;
42714;SDS011;28351;51.480;5.706;2023-06-22T08:03:37;19.70;;;13.25;;
42714;SDS011;28351;51.480;5.706;2023-06-22T08:08:34;16.92;;;12.27;;
42714;SDS011;28351;51.480;5.706;2023-06-22T08:11:00;14.55;;;11.98;;
42714;SDS011;28351;51.480;5.706;2023-06-22T08:13:26;17.98;;;12.60;;
42714;SDS011;28351;51.480;5.706;2023-06-22T08:16:00;18.05;;;12.50;;
42714;SDS011;28351;51.480;5.706;2023-06-22T08:18:26;18.67;;;12.43;;
42714;SDS011;28351;51.480;5.706;2023-06-22T08:20:52;17.90;;;11.95;;
42714;SDS011;28351;51.480;5.706;2023-06-22T08:23:17;16.52;;;12.73;;
42714;SDS011;28351;51.480;5.706;2023-06-22T08:25:43;17.23;;;13.40;;
42714;SDS011;28351;51.480;5.706;2023-06-22T08:28:09;18.70;;;14.30;;
42714;SDS011;28351;51.480;5.706;2023-06-22T08:30:35;18.77;;;13.50;;
42714;SDS011;28351;51.480;5.706;2023-06-22T08:33:00;19.17;;;14.68;;
42714;SDS011;28351;51.480;5.706;2023-06-22T08:35:26;17.50;;;13.35;;
42714;SDS011;28351;51.480;5.706;2023-06-22T08:37:51;19.90;;;13.82;;
42714;SDS011;28351;51.480;5.706;2023-06-22T08:40:22;19.98;;;14.55;;
42714;SDS011;28351;51.480;5.706;2023-06-22T08:42:48;18.85;;;14.75;;
42714;SDS011;28351;51.480;5.706;2023-06-22T08:45:16;19.08;;;13.90;;
42714;SDS011;28351;51.480;5.706;2023-06-22T08:47:42;17.92;;;13.23;;
42714;SDS011;28351;51.480;5.706;2023-06-22T08:50:11;19.85;;;13.68;;
42714;SDS011;28351;51.480;5.706;2023-06-22T08:52:38;18.83;;;14.55;;
42714;SDS011;28351;51.480;5.706;2023-06-22T08:55:06;20.25;;;13.88;;
42714;SDS011;28351;51.480;5.706;2023-06-22T08:57:32;16.50;;;13.73;;
42714;SDS011;28351;51.480;5.706;2023-06-22T09:00:00;18.90;;;13.93;;
42714;SDS011;28351;51.480;5.706;2023-06-22T09:02:26;19.85;;;14.40;;
42714;SDS011;28351;51.480;5.706;2023-06-22T09:04:55;18.58;;;14.23;;
42714;SDS011;28351;51.480;5.706;2023-06-22T09:07:24;19.42;;;13.93;;
42714;SDS011;28351;51.480;5.706;2023-06-22T09:09:51;17.83;;;14.15;;
42714;SDS011;28351;51.480;5.706;2023-06-22T09:12:17;16.88;;;13.80;;
42714;SDS011;28351;51.480;5.706;2023-06-22T09:14:48;25.27;;;14.75;;
42714;SDS011;28351;51.480;5.706;2023-06-22T09:17:13;17.85;;;14.13;;
42714;SDS011;28351;51.480;5.706;2023-06-22T09:19:39;18.55;;;13.65;;
42714;SDS011;28351;51.480;5.706;2023-06-22T09:22:05;18.70;;;13.82;;
42714;SDS011;28351;51.480;5.706;2023-06-22T09:24:33;20.25;;;14.48;;
42714;SDS011;28351;51.480;5.706;2023-06-22T09:26:59;18.70;;;14.05;;
42714;SDS011;28351;51.480;5.706;2023-06-22T09:29:24;20.90;;;14.40;;
42714;SDS011;28351;51.480;5.706;2023-06-22T09:31:50;18.77;;;13.88;;
42714;SDS011;28351;51.480;5.706;2023-06-22T09:34:18;18.15;;;13.50;;
42714;SDS011;28351;51.480;5.706;2023-06-22T09:36:45;16.65;;;13.13;;
42714;SDS011;28351;51.480;5.706;2023-06-22T09:39:12;17.80;;;13.63;;
42714;SDS011;28351;51.480;5.706;2023-06-22T09:41:41;18.45;;;13.82;;
42714;SDS011;28351;51.480;5.706;2023-06-22T09:46:39;18.05;;;12.68;;
42714;SDS011;28351;51.480;5.706;2023-06-22T09:49:05;16.75;;;12.27;;
42714;SDS011;28351;51.480;5.706;2023-06-22T09:51:30;15.10;;;12.13;;
42714;SDS011;28351;51.480;5.706;2023-06-22T09:53:56;16.52;;;12.95;;
42714;SDS011;28351;51.480;5.706;2023-06-22T09:56:23;16.48;;;12.48;;
42714;SDS011;28351;51.480;5.706;2023-06-22T09:58:48;16.98;;;12.75;;
42714;SDS011;28351;51.480;5.706;2023-06-22T10:01:17;16.02;;;12.35;;
42714;SDS011;28351;51.480;5.706;2023-06-22T10:03:43;17.58;;;13.00;;
42714;SDS011;28351;51.480;5.706;2023-06-22T10:06:09;17.15;;;12.23;;
42714;SDS011;28351;51.480;5.706;2023-06-22T10:08:35;15.85;;;11.68;;
42714;SDS011;28351;51.480;5.706;2023-06-22T10:11:01;16.15;;;12.55;;
42714;SDS011;28351;51.480;5.706;2023-06-22T10:13:26;15.43;;;12.40;;
42714;SDS011;28351;51.480;5.706;2023-06-22T10:15:52;16.75;;;12.45;;
42714;SDS011;28351;51.480;5.706;2023-06-22T10:18:18;15.95;;;12.35;;
42714;SDS011;28351;51.480;5.706;2023-06-22T10:20:47;15.60;;;12.50;;
42714;SDS011;28351;51.480;5.706;2023-06-22T10:23:13;16.05;;;11.93;;
42714;SDS011;28351;51.480;5.706;2023-06-22T10:25:38;17.05;;;12.40;;
42714;SDS011;28351;51.480;5.706;2023-06-22T10:28:04;14.98;;;11.90;;
42714;SDS011;28351;51.480;5.706;2023-06-22T10:30:31;15.75;;;11.02;;
42714;SDS011;28351;51.480;5.706;2023-06-22T10:32:56;14.48;;;10.63;;
42714;SDS011;28351;51.480;5.706;2023-06-22T10:35:22;15.38;;;11.27;;
42714;SDS011;28351;51.480;5.706;2023-06-22T10:37:49;15.20;;;11.23;;
42714;SDS011;28351;51.480;5.706;2023-06-22T10:40:16;15.45;;;11.23;;
42714;SDS011;28351;51.480;5.706;2023-06-22T10:42:43;15.40;;;12.02;;
42714;SDS011;28351;51.480;5.706;2023-06-22T10:45:09;16.23;;;12.85;;
42714;SDS011;28351;51.480;5.706;2023-06-22T10:47:35;18.83;;;14.15;;
42714;SDS011;28351;51.480;5.706;2023-06-22T10:50:02;20.75;;;14.60;;
42714;SDS011;28351;51.480;5.706;2023-06-22T10:52:28;23.00;;;15.50;;
42714;SDS011;28351;51.480;5.706;2023-06-22T10:54:53;22.45;;;16.08;;
42714;SDS011;28351;51.480;5.706;2023-06-22T10:57:19;23.52;;;17.08;;
42714;SDS011;28351;51.480;5.706;2023-06-22T10:59:45;24.98;;;18.27;;
42714;SDS011;28351;51.480;5.706;2023-06-22T11:02:10;22.55;;;17.05;;
42714;SDS011;28351;51.480;5.706;2023-06-22T11:04:37;27.92;;;18.88;;
42714;SDS011;28351;51.480;5.706;2023-06-22T11:07:03;28.65;;;19.83;;
42714;SDS011;28351;51.480;5.706;2023-06-22T11:09:29;30.67;;;21.58;;
42714;SDS011;28351;51.480;5.706;2023-06-22T11:11:55;33.10;;;22.75;;
42714;SDS011;28351;51.480;5.706;2023-06-22T11:14:21;33.92;;;22.60;;
42714;SDS011;28351;51.480;5.706;2023-06-22T11:16:50;32.80;;;22.23;;
42714;SDS011;28351;51.480;5.706;2023-06-22T11:19:15;36.13;;;22.95;;
42714;SDS011;28351;51.480;5.706;2023-06-22T11:21:41;39.90;;;24.30;;
42714;SDS011;28351;51.480;5.706;2023-06-22T11:24:07;35.35;;;23.60;;
42714;SDS011;28351;51.480;5.706;2023-06-22T11:26:32;36.50;;;24.85;;
42714;SDS011;28351;51.480;5.706;2023-06-22T11:29:04;36.80;;;23.52;;
42714;SDS011;28351;51.480;5.706;2023-06-22T11:31:30;37.40;;;25.45;;
42714;SDS011;28351;51.480;5.706;2023-06-22T11:34:04;39.50;;;25.98;;
42714;SDS011;28351;51.480;5.706;2023-06-22T11:36:30;40.88;;;27.35;;
42714;SDS011;28351;51.480;5.706;2023-06-22T11:38:58;41.90;;;27.17;;
42714;SDS011;28351;51.480;5.706;2023-06-22T11:41:24;40.60;;;28.45;;
42714;SDS011;28351;51.480;5.706;2023-06-22T11:43:49;42.08;;;26.73;;
42714;SDS011;28351;51.480;5.706;2023-06-22T11:48:44;40.25;;;26.83;;
42714;SDS011;28351;51.480;5.706;2023-06-22T11:51:16;44.95;;;28.08;;
42714;SDS011;28351;51.480;5.706;2023-06-22T11:53:41;41.13;;;26.27;;
42714;SDS011;28351;51.480;5.706;2023-06-22T11:56:07;40.22;;;26.50;;
42714;SDS011;28351;51.480;5.706;2023-06-22T11:58:36;39.75;;;27.85;;
42714;SDS011;28351;51.480;5.706;2023-06-22T12:01:02;43.08;;;28.92;;
42714;SDS011;28351;51.480;5.706;2023-06-22T12:03:28;43.72;;;28.10;;
42714;SDS011;28351;51.480;5.706;2023-06-22T12:05:55;40.78;;;27.15;;
42714;SDS011;28351;51.480;5.706;2023-06-22T12:08:23;39.78;;;27.98;;
42714;SDS011;28351;51.480;5.706;2023-06-22T12:10:49;44.50;;;29.10;;
42714;SDS011;28351;51.480;5.706;2023-06-22T12:13:22;39.47;;;27.70;;
42714;SDS011;28351;51.480;5.706;2023-06-22T12:15:49;44.50;;;27.02;;
42714;SDS011;28351;51.480;5.706;2023-06-22T12:18:17;40.80;;;26.42;;
42714;SDS011;28351;51.480;5.706;2023-06-22T12:20:45;41.17;;;27.75;;
42714;SDS011;28351;51.480;5.706;2023-06-22T12:23:11;39.47;;;25.50;;
42714;SDS011;28351;51.480;5.706;2023-06-22T12:25:37;41.15;;;26.65;;
42714;SDS011;28351;51.480;5.706;2023-06-22T12:28:02;40.88;;;27.73;;
42714;SDS011;28351;51.480;5.706;2023-06-22T12:30:29;36.38;;;25.27;;
42714;SDS011;28351;51.480;5.706;2023-06-22T12:32:55;36.13;;;23.75;;
42714;SDS011;28351;51.480;5.706;2023-06-22T12:35:21;41.80;;;26.90;;
42714;SDS011;28351;51.480;5.706;2023-06-22T12:37:47;37.65;;;25.42;;
42714;SDS011;28351;51.480;5.706;2023-06-22T12:40:12;34.80;;;25.30;;
42714;SDS011;28351;51.480;5.706;2023-06-22T12:42:38;32.35;;;23.88;;
42714;SDS011;28351;51.480;5.706;2023-06-22T12:45:04;36.97;;;24.73;;
42714;SDS011;28351;51.480;5.706;2023-06-22T12:47:31;38.95;;;26.80;;
42714;SDS011;28351;51.480;5.706;2023-06-22T12:49:56;36.67;;;24.58;;
42714;SDS011;28351;51.480;5.706;2023-06-22T12:52:24;32.97;;;24.55;;
42714;SDS011;28351;51.480;5.706;2023-06-22T12:54:50;35.20;;;25.80;;
42714;SDS011;28351;51.480;5.706;2023-06-22T12:57:17;32.60;;;24.10;;
42714;SDS011;28351;51.480;5.706;2023-06-22T12:59:44;37.65;;;25.67;;
42714;SDS011;28351;51.480;5.706;2023-06-22T13:02:10;37.72;;;25.83;;
42714;SDS011;28351;51.480;5.706;2023-06-22T13:04:35;36.33;;;26.85;;
42714;SDS011;28351;51.480;5.706;2023-06-22T13:07:01;35.72;;;25.95;;
42714;SDS011;28351;51.480;5.706;2023-06-22T13:09:27;34.80;;;26.15;;
42714;SDS011;28351;51.480;5.706;2023-06-22T13:11:53;33.35;;;25.75;;
42714;SDS011;28351;51.480;5.706;2023-06-22T13:14:18;37.33;;;25.27;;
42714;SDS011;28351;51.480;5.706;2023-06-22T13:16:44;37.97;;;26.25;;
42714;SDS011;28351;51.480;5.706;2023-06-22T13:19:11;35.63;;;26.45;;
42714;SDS011;28351;51.480;5.706;2023-06-22T13:21:37;37.35;;;26.42;;
42714;SDS011;28351;51.480;5.706;2023-06-22T13:24:03;35.47;;;24.88;;
42714;SDS011;28351;51.480;5.706;2023-06-22T13:26:31;38.88;;;27.33;;
42714;SDS011;28351;51.480;5.706;2023-06-22T13:28:56;36.42;;;27.35;;
42714;SDS011;28351;51.480;5.706;2023-06-22T13:31:22;35.70;;;26.80;;
42714;SDS011;28351;51.480;5.706;2023-06-22T13:33:49;39.17;;;28.35;;
42714;SDS011;28351;51.480;5.706;2023-06-22T13:36:17;36.47;;;26.92;;
42714;SDS011;28351;51.480;5.706;2023-06-22T13:38:43;33.55;;;25.45;;
42714;SDS011;28351;51.480;5.706;2023-06-22T13:41:08;36.72;;;26.60;;
42714;SDS011;28351;51.480;5.706;2023-06-22T13:43:34;37.00;;;27.52;;
42714;SDS011;28351;51.480;5.706;2023-06-22T13:46:00;37.17;;;28.08;;
42714;SDS011;28351;51.480;5.706;2023-06-22T13:48:25;39.00;;;28.50;;
42714;SDS011;28351;51.480;5.706;2023-06-22T13:50:53;39.43;;;28.33;;
42714;SDS011;28351;51.480;5.706;2023-06-22T13:53:19;37.40;;;27.30;;
42714;SDS011;28351;51.480;5.706;2023-06-22T13:55:44;37.60;;;28.70;;
42714;SDS011;28351;51.480;5.706;2023-06-22T13:58:11;39.42;;;29.02;;
42714;SDS011;28351;51.480;5.706;2023-06-22T14:00:37;45.10;;;28.10;;
42714;SDS011;28351;51.480;5.706;2023-06-22T14:03:10;40.00;;;28.38;;
42714;SDS011;28351;51.480;5.706;2023-06-22T14:05:35;36.55;;;27.63;;
42714;SDS011;28351;51.480;5.706;2023-06-22T14:08:01;34.40;;;27.13;;
42714;SDS011;28351;51.480;5.706;2023-06-22T14:10:27;36.58;;;26.52;;
42714;SDS011;28351;51.480;5.706;2023-06-22T14:12:52;36.78;;;28.00;;
42714;SDS011;28351;51.480;5.706;2023-06-22T14:15:18;39.58;;;28.73;;
42714;SDS011;28351;51.480;5.706;2023-06-22T14:17:44;42.13;;;28.63;;
42714;SDS011;28351;51.480;5.706;2023-06-22T14:20:10;41.10;;;30.08;;
42714;SDS011;28351;51.480;5.706;2023-06-22T14:22:36;39.30;;;29.95;;
42714;SDS011;28351;51.480;5.706;2023-06-22T14:25:01;40.72;;;30.08;;
42714;SDS011;28351;51.480;5.706;2023-06-22T14:27:27;42.53;;;31.08;;
42714;SDS011;28351;51.480;5.706;2023-06-22T14:29:53;40.83;;;30.05;;
42714;SDS011;28351;51.480;5.706;2023-06-22T14:32:21;39.65;;;29.00;;
42714;SDS011;28351;51.480;5.706;2023-06-22T14:34:47;40.78;;;29.45;;
42714;SDS011;28351;51.480;5.706;2023-06-22T14:37:15;40.40;;;29.43;;
42714;SDS011;28351;51.480;5.706;2023-06-22T14:39:40;41.35;;;30.05;;
42714;SDS011;28351;51.480;5.706;2023-06-22T14:42:06;39.40;;;28.42;;
42714;SDS011;28351;51.480;5.706;2023-06-22T14:44:32;38.35;;;28.30;;
42714;SDS011;28351;51.480;5.706;2023-06-22T14:46:58;41.15;;;28.35;;
42714;SDS011;28351;51.480;5.706;2023-06-22T14:49:23;40.17;;;28.08;;
42714;SDS011;28351;51.480;5.706;2023-06-22T14:52:22;37.17;;;27.38;;
42714;SDS011;28351;51.480;5.706;2023-06-22T14:54:47;40.63;;;27.27;;
42714;SDS011;28351;51.480;5.706;2023-06-22T14:57:12;35.85;;;26.00;;